Time;durP1;ratioP1;P1;durP2;ratioP2;P2;SDS_P1;SDS_P2;PMS_P1;PMS_P2;Temp;Humidity;BMP_temperature;BMP_pressure;BME280_temperature;BME280_humidity;BME280_pressure;Samples;Min_cycle;Max_cycle;Signal;HPM_P1;HPM_P2
2022/08/03 00:01:10;;;;;;;1.30;0.80;;;15.20;99.90;;;;;;5031514;28;20248;-73
2022/08/03 00:03:40;;;;;;;2.50;0.65;;;15.20;99.90;;;;;;5034306;28;20244;-74
2022/08/03 00:06:11;;;;;;;1.17;0.70;;;15.30;99.90;;;;;;5035921;28;20187;-73
2022/08/03 00:08:43;;;;;;;0.65;0.50;;;15.20;99.90;;;;;;5035171;28;20226;-73
2022/08/03 00:11:14;;;;;;;2.83;0.50;;;15.30;99.90;;;;;;5035366;28;20198;-74
2022/08/03 00:13:45;;;;;;;1.95;0.60;;;15.30;99.90;;;;;;5033540;28;20198;-75
2022/08/03 00:16:16;;;;;;;1.65;0.70;;;15.50;99.90;;;;;;5023262;28;20210;-74
2022/08/03 00:18:46;;;;;;;2.65;1.00;;;15.60;99.90;;;;;;5024612;28;20202;-74
2022/08/03 00:21:17;;;;;;;8.80;3.25;;;15.60;99.90;;;;;;5032925;28;20204;-74
2022/08/03 00:23:50;;;;;;;2.15;0.70;;;15.70;99.90;;;;;;5028295;28;20206;-74
2022/08/03 00:26:20;;;;;;;2.58;0.57;;;15.70;99.90;;;;;;5034681;28;20198;-74
2022/08/03 00:28:51;;;;;;;1.42;0.52;;;15.70;99.90;;;;;;5032172;28;20708;-74
2022/08/03 00:31:22;;;;;;;1.23;0.60;;;15.70;99.90;;;;;;5032646;28;20231;-74
2022/08/03 00:33:53;;;;;;;1.60;0.60;;;15.80;99.90;;;;;;5030752;28;21014;-76
2022/08/03 00:36:23;;;;;;;0.68;0.60;;;15.80;99.90;;;;;;5032319;28;20234;-77
2022/08/03 00:38:56;;;;;;;0.73;0.60;;;15.80;99.90;;;;;;5031871;28;20234;-77
2022/08/03 00:41:27;;;;;;;0.70;0.50;;;15.80;99.90;;;;;;5032778;28;20194;-75
2022/08/03 00:43:57;;;;;;;1.33;0.70;;;15.80;99.90;;;;;;5035162;28;20202;-74
2022/08/03 00:46:28;;;;;;;1.88;0.70;;;15.90;99.90;;;;;;5034262;28;20194;-74
2022/08/03 00:48:58;;;;;;;1.00;0.60;;;15.90;99.90;;;;;;5034628;28;20220;-74
2022/08/03 00:51:30;;;;;;;0.77;0.50;;;16.00;99.90;;;;;;5034107;28;20194;-76
2022/08/03 00:54:02;;;;;;;0.98;0.60;;;16.10;99.90;;;;;;5034336;28;20217;-75
2022/08/03 00:56:33;;;;;;;0.52;0.50;;;16.10;99.90;;;;;;5034817;28;20197;-74
2022/08/03 00:59:04;;;;;;;0.60;0.52;;;16.20;99.90;;;;;;5034688;28;20592;-74
2022/08/03 01:01:35;;;;;;;0.65;0.50;;;16.30;99.90;;;;;;5034682;28;20194;-74
2022/08/03 01:04:06;;;;;;;4.03;0.70;;;16.30;99.90;;;;;;5015238;28;20202;-75
2022/08/03 01:06:43;;;;;;;2.65;0.90;;;16.40;99.90;;;;;;5028777;28;20198;-74
2022/08/03 01:09:34;;;;;;;1.33;0.60;;;16.50;99.90;;;;;;5034325;28;20232;-73
2022/08/03 01:12:16;;;;;;;1.38;0.60;;;16.50;99.90;;;;;;5025684;28;20201;-74
2022/08/03 01:14:53;;;;;;;1.52;0.60;;;16.60;99.90;;;;;;5016987;28;20234;-74
2022/08/03 01:17:33;;;;;;;0.77;0.55;;;16.70;99.90;;;;;;5019904;28;20186;-74
2022/08/03 01:20:08;;;;;;;0.60;0.60;;;16.80;99.90;;;;;;5033964;28;20198;-75
2022/08/03 01:23:04;;;;;;;2.55;0.60;;;16.90;99.90;;;;;;5028491;28;20189;-75
2022/08/03 01:25:52;;;;;;;1.88;0.60;;;17.10;99.90;;;;;;5034466;28;20186;-74
2022/08/03 01:28:56;;;;;;;1.35;0.80;;;17.20;99.90;;;;;;5033622;28;20562;-74
2022/08/03 01:31:33;;;;;;;1.08;0.70;;;17.40;99.90;;;;;;5028492;28;20206;-74
2022/08/03 01:34:07;;;;;;;1.67;0.68;;;17.80;99.90;;;;;;5033265;28;20194;-75
2022/08/03 01:36:41;;;;;;;1.63;0.80;;;18.10;99.90;;;;;;5030227;28;20217;-74
2022/08/03 01:39:14;;;;;;;1.90;0.60;;;18.40;99.90;;;;;;5025950;28;20245;-74
2022/08/03 01:41:51;;;;;;;1.85;0.80;;;18.70;99.90;;;;;;5032336;28;20202;-76
2022/08/03 01:44:24;;;;;;;2.05;0.75;;;19.00;99.90;;;;;;5033996;28;20197;-75
2022/08/03 01:47:00;;;;;;;2.15;0.75;;;19.50;99.90;;;;;;5033068;28;20198;-74
2022/08/03 01:49:33;;;;;;;1.13;0.70;;;19.70;99.90;;;;;;5033698;28;20289;-74
2022/08/03 01:52:05;;;;;;;2.45;0.60;;;19.70;99.90;;;;;;5034044;28;20191;-74
2022/08/03 01:54:38;;;;;;;1.42;0.60;;;19.90;99.90;;;;;;5033758;28;20657;-75
2022/08/03 01:57:11;;;;;;;1.73;0.60;;;20.10;99.90;;;;;;5033639;28;20194;-75
2022/08/03 01:59:43;;;;;;;8.90;3.92;;;20.10;99.90;;;;;;5033407;28;20305;-74
2022/08/03 02:02:17;;;;;;;2.03;0.70;;;20.20;99.90;;;;;;5028228;28;20203;-75
2022/08/03 02:04:50;;;;;;;0.57;0.50;;;20.40;99.90;;;;;;5033651;28;20653;-75
2022/08/03 02:07:21;;;;;;;2.13;0.70;;;20.50;99.90;;;;;;5033068;28;20194;-75
2022/08/03 02:09:54;;;;;;;0.73;0.47;;;20.70;99.90;;;;;;5033097;28;20580;-75
2022/08/03 02:12:26;;;;;;;0.63;0.52;;;20.80;99.90;;;;;;5032953;28;20198;-76
2022/08/03 02:14:58;;;;;;;3.85;0.70;;;21.00;99.90;;;;;;5033567;28;20191;-75
2022/08/03 02:17:32;;;;;;;1.45;0.50;;;21.10;99.90;;;;;;5027036;28;20201;-75
2022/08/03 02:20:04;;;;;;;0.63;0.40;;;21.20;99.90;;;;;;5033180;28;20190;-76
2022/08/03 02:22:37;;;;;;;1.17;0.43;;;21.20;99.90;;;;;;5033002;28;20646;-73
2022/08/03 02:25:08;;;;;;;0.68;0.50;;;21.20;99.90;;;;;;5032625;28;20191;-75
2022/08/03 02:27:44;;;;;;;1.25;0.60;;;21.20;99.90;;;;;;5033236;28;20191;-74
2022/08/03 02:30:16;;;;;;;1.27;0.60;;;21.30;99.90;;;;;;5033224;28;20231;-73
2022/08/03 02:32:55;;;;;;;1.25;0.82;;;21.40;99.90;;;;;;5032996;28;20186;-76
2022/08/03 02:35:27;;;;;;;1.67;0.65;;;21.50;99.90;;;;;;5031244;28;20189;-76
2022/08/03 02:38:03;;;;;;;0.98;0.68;;;21.50;99.90;;;;;;5032186;28;20237;-75
2022/08/03 02:40:35;;;;;;;2.42;0.95;;;21.50;99.90;;;;;;5022289;28;20190;-75
2022/08/03 02:43:09;;;;;;;0.45;0.40;;;21.60;99.90;;;;;;5024512;28;20190;-76
2022/08/03 02:45:46;;;;;;;0.80;0.40;;;21.70;99.90;;;;;;5032508;28;20198;-76
2022/08/03 02:48:23;;;;;;;2.08;0.50;;;21.70;99.90;;;;;;5032025;28;20198;-75
2022/08/03 02:50:57;;;;;;;0.50;0.47;;;21.80;99.90;;;;;;5031847;28;20272;-75
2022/08/03 02:53:30;;;;;;;3.15;1.40;;;21.90;99.90;;;;;;5032908;28;20190;-76
2022/08/03 02:56:01;;;;;;;1.90;0.55;;;21.90;99.90;;;;;;5024677;28;20202;-75
2022/08/03 02:58:34;;;;;;;1.70;0.50;;;22.00;99.90;;;;;;5028615;28;20230;-77
2022/08/03 03:01:06;;;;;;;1.05;0.50;;;21.90;99.90;;;;;;5032694;28;20645;-76
2022/08/03 03:03:39;;;;;;;1.20;0.40;;;22.00;99.90;;;;;;5032666;28;20209;-76
2022/08/03 03:06:11;;;;;;;2.17;0.43;;;22.10;99.90;;;;;;5015197;28;20191;-75
2022/08/03 03:08:42;;;;;;;1.58;0.60;;;22.10;99.90;;;;;;5032556;28;20198;-76
2022/08/03 03:11:15;;;;;;;1.85;0.60;;;22.20;99.90;;;;;;5030643;28;20217;-75
2022/08/03 03:13:46;;;;;;;0.65;0.47;;;22.30;99.90;;;;;;5032664;28;20197;-77
2022/08/03 03:16:17;;;;;;;1.10;0.60;;;22.30;99.90;;;;;;5032571;28;20194;-76
2022/08/03 03:18:51;;;;;;;0.30;0.30;;;22.30;99.90;;;;;;5031630;28;20201;-76
2022/08/03 03:21:23;;;;;;;2.13;0.50;;;22.40;99.90;;;;;;5032194;28;20217;-76
2022/08/03 03:23:55;;;;;;;1.35;0.40;;;22.40;99.90;;;;;;5031641;28;20194;-78
2022/08/03 03:26:26;;;;;;;1.45;0.68;;;22.40;99.90;;;;;;5031903;28;20186;-83
2022/08/03 03:28:56;;;;;;;0.95;0.60;;;22.40;99.90;;;;;;5035711;28;20637;-82
2022/08/03 03:31:27;;;;;;;1.90;0.60;;;22.50;99.90;;;;;;5024739;28;20190;-80
2022/08/03 03:34:01;;;;;;;1.23;0.60;;;22.60;99.90;;;;;;5032342;28;20197;-78
2022/08/03 03:36:32;;;;;;;1.85;0.70;;;22.60;99.90;;;;;;5032097;28;20230;-81
2022/08/03 03:39:02;;;;;;;0.90;0.50;;;22.60;99.90;;;;;;5035878;28;20229;-79
2022/08/03 03:41:33;;;;;;;1.95;0.50;;;22.60;99.90;;;;;;5036187;28;20183;-81
2022/08/03 03:44:04;;;;;;;1.10;0.60;;;22.60;99.90;;;;;;5035827;28;20191;-81
2022/08/03 03:46:35;;;;;;;1.65;0.50;;;22.60;99.90;;;;;;5036374;28;20649;-79
2022/08/03 03:49:08;;;;;;;2.17;0.50;;;22.60;99.90;;;;;;5036271;28;20186;-76
2022/08/03 03:51:38;;;;;;;1.70;0.50;;;22.70;99.90;;;;;;5036714;28;20194;-75
2022/08/03 03:54:09;;;;;;;1.23;0.50;;;22.70;99.90;;;;;;5036012;28;20537;-77
2022/08/03 03:56:40;;;;;;;0.85;0.40;;;22.70;99.90;;;;;;5036190;28;20190;-77
2022/08/03 03:59:11;;;;;;;0.55;0.40;;;22.80;99.90;;;;;;5035935;28;20201;-76
2022/08/03 04:01:42;;;;;;;2.22;0.70;;;22.70;99.90;;;;;;5036137;28;20197;-77
2022/08/03 04:12:37;;;;;;;1.67;0.55;;;22.90;99.90;;;;;;5035823;28;20615;-76
2022/08/03 04:15:10;;;;;;;5.50;0.60;;;22.90;99.90;;;;;;5035828;28;20187;-78
2022/08/03 04:17:42;;;;;;;2.38;0.52;;;22.80;99.90;;;;;;5035690;28;20202;-77
2022/08/03 04:20:16;;;;;;;1.20;0.57;;;22.80;99.90;;;;;;5035844;28;20201;-76
2022/08/03 04:22:49;;;;;;;1.20;0.47;;;22.80;99.90;;;;;;5035417;28;20668;-74
2022/08/03 04:25:22;;;;;;;0.80;0.43;;;22.90;99.90;;;;;;5035699;28;20190;-74
2022/08/03 04:27:54;;;;;;;0.70;0.40;;;22.90;99.90;;;;;;5033304;28;20205;-76
2022/08/03 04:30:26;;;;;;;0.55;0.55;;;22.80;99.90;;;;;;5028912;28;20249;-77
2022/08/03 04:32:57;;;;;;;2.40;0.60;;;22.90;99.90;;;;;;5031217;28;20198;-76
2022/08/03 04:35:33;;;;;;;0.68;0.40;;;22.90;99.90;;;;;;5030138;28;20625;-79
2022/08/03 04:38:08;;;;;;;1.63;0.52;;;22.90;99.90;;;;;;5032152;28;20222;-78
2022/08/03 04:40:41;;;;;;;1.33;0.60;;;22.90;99.90;;;;;;5033527;28;20672;-78
2022/08/03 04:43:13;;;;;;;2.03;0.80;;;23.00;99.90;;;;;;5031409;28;20202;-77
2022/08/03 04:45:44;;;;;;;2.70;1.00;;;23.10;99.90;;;;;;5030775;28;20194;-77
2022/08/03 04:48:17;;;;;;;0.98;0.55;;;23.10;99.90;;;;;;5029815;28;20217;-78
2022/08/03 04:50:50;;;;;;;0.85;0.52;;;23.10;99.90;;;;;;5022628;28;20565;-77
2022/08/03 04:53:21;;;;;;;1.02;0.50;;;23.10;99.90;;;;;;5015080;28;20218;-77
2022/08/03 04:55:52;;;;;;;0.63;0.40;;;23.10;99.90;;;;;;5031090;28;20190;-76
2022/08/03 04:58:22;;;;;;;1.25;0.55;;;23.10;99.90;;;;;;5024403;28;20198;-80
2022/08/03 05:00:53;;;;;;;1.77;0.60;;;23.10;99.90;;;;;;5033147;28;20202;-77
2022/08/03 05:03:24;;;;;;;0.95;0.50;;;23.10;99.90;;;;;;5034070;28;20190;-79
2022/08/03 05:05:57;;;;;;;0.98;0.50;;;23.20;99.90;;;;;;5053461;28;20237;-78
2022/08/03 05:08:27;;;;;;;2.78;1.10;;;23.30;99.90;;;;;;5034853;28;20649;-79
2022/08/03 05:10:58;;;;;;;3.58;0.60;;;23.20;99.90;;;;;;5034161;28;20210;-78
2022/08/03 05:13:29;;;;;;;1.10;0.50;;;23.20;99.90;;;;;;5035989;28;20200;-79
2022/08/03 05:15:59;;;;;;;1.30;0.40;;;23.10;99.90;;;;;;5034638;28;20653;-77
2022/08/03 05:18:31;;;;;;;0.75;0.50;;;23.10;99.90;;;;;;5034998;28;20195;-79
2022/08/03 05:21:03;;;;;;;1.85;0.50;;;23.10;99.90;;;;;;5035702;28;20200;-78
2022/08/03 05:23:34;;;;;;;0.65;0.50;;;22.90;99.90;;;;;;5034287;28;20194;-76
2022/08/03 05:26:05;;;;;;;0.68;0.50;;;22.90;99.90;;;;;;5034109;28;20194;-76
2022/08/03 05:28:35;;;;;;;2.08;0.70;;;22.80;99.90;;;;;;5033184;28;20195;-78
2022/08/03 05:31:06;;;;;;;1.67;0.65;;;22.80;99.90;;;;;;5038405;28;20673;-77
2022/08/03 05:33:37;;;;;;;1.33;0.55;;;22.70;99.90;;;;;;5034189;28;20187;-78
2022/08/03 05:36:10;;;;;;;1.42;0.50;;;22.70;99.90;;;;;;5033060;28;20214;-79
2022/08/03 05:38:40;;;;;;;3.72;0.63;;;22.70;99.90;;;;;;5034178;28;20701;-77
2022/08/03 05:41:11;;;;;;;1.17;0.60;;;22.70;99.90;;;;;;5033368;28;20205;-80
2022/08/03 05:43:42;;;;;;;2.70;0.70;;;22.70;99.90;;;;;;5031217;28;20575;-79
2022/08/03 05:46:12;;;;;;;0.43;0.43;;;22.70;99.90;;;;;;5031712;28;20200;-80
2022/08/03 05:48:43;;;;;;;1.20;0.50;;;22.80;99.90;;;;;;5033347;28;20197;-79
2022/08/03 05:51:16;;;;;;;1.55;0.50;;;22.70;99.90;;;;;;5032198;28;20214;-81
2022/08/03 05:53:47;;;;;;;2.35;0.50;;;22.80;99.90;;;;;;5030174;28;20198;-79
2022/08/03 05:56:18;;;;;;;0.82;0.60;;;22.80;99.90;;;;;;5030358;28;20190;-81
2022/08/03 05:58:49;;;;;;;0.73;0.50;;;22.90;99.90;;;;;;5031936;28;20194;-80
2022/08/03 06:01:20;;;;;;;1.17;0.50;;;22.80;99.90;;;;;;5031717;28;20217;-80
2022/08/03 06:03:51;;;;;;;0.93;0.60;;;22.90;99.90;;;;;;5031849;28;20251;-80
2022/08/03 06:06:24;;;;;;;2.35;0.55;;;22.90;99.90;;;;;;5032217;28;20202;-77
2022/08/03 06:08:54;;;;;;;2.35;0.60;;;22.80;99.90;;;;;;5033382;28;20202;-78
2022/08/03 06:11:25;;;;;;;1.13;0.40;;;22.80;99.90;;;;;;5033505;28;20221;-77
2022/08/03 06:13:56;;;;;;;0.60;0.60;;;22.70;99.90;;;;;;5038875;28;20202;-79
2022/08/03 06:16:26;;;;;;;0.75;0.57;;;22.60;99.90;;;;;;5031386;28;20195;-81
2022/08/03 06:18:57;;;;;;;1.38;0.55;;;22.60;99.90;;;;;;5032631;28;20194;-78
2022/08/03 06:21:30;;;;;;;1.42;0.50;;;22.50;99.90;;;;;;5030442;28;20209;-78
2022/08/03 06:24:00;;;;;;;1.52;0.52;;;22.40;99.90;;;;;;5032096;28;20197;-80
2022/08/03 06:26:31;;;;;;;3.03;0.50;;;22.30;99.90;;;;;;5032398;28;20205;-79
2022/08/03 06:29:02;;;;;;;1.10;0.60;;;22.20;99.90;;;;;;5033364;28;20199;-78
2022/08/03 06:31:33;;;;;;;0.85;0.47;;;22.20;99.90;;;;;;5032624;28;20589;-78
2022/08/03 06:34:04;;;;;;;1.50;0.45;;;22.10;99.90;;;;;;5033000;28;20194;-80
2022/08/03 06:36:37;;;;;;;1.10;0.40;;;22.00;99.90;;;;;;5032270;28;20287;-79
2022/08/03 06:39:08;;;;;;;1.20;0.40;;;21.90;99.90;;;;;;5032049;28;20241;-78
2022/08/03 06:41:38;;;;;;;0.40;0.40;;;21.90;99.90;;;;;;5033191;28;20206;-76
2022/08/03 06:44:09;;;;;;;1.10;0.45;;;21.80;99.90;;;;;;5032824;28;20195;-80
2022/08/03 06:46:40;;;;;;;0.57;0.50;;;21.80;99.90;;;;;;5031133;28;20591;-79
2022/08/03 06:49:11;;;;;;;1.05;0.50;;;21.70;99.90;;;;;;5023706;28;20221;-77
2022/08/03 06:51:43;;;;;;;1.85;0.70;;;21.60;99.90;;;;;;5030399;28;20302;-79
2022/08/03 06:54:14;;;;;;;1.45;0.68;;;21.50;99.90;;;;;;5032571;28;20605;-79
2022/08/03 06:56:45;;;;;;;1.40;0.68;;;21.40;99.90;;;;;;5032456;28;20198;-78
2022/08/03 06:59:15;;;;;;;1.48;0.57;;;21.30;99.90;;;;;;5032758;28;20201;-78
2022/08/03 07:01:46;;;;;;;0.45;0.40;;;21.30;99.90;;;;;;5022885;28;20191;-78
2022/08/03 07:04:17;;;;;;;2.47;0.70;;;21.20;99.90;;;;;;5029129;28;20572;-77
2022/08/03 07:06:49;;;;;;;1.65;0.47;;;21.10;99.90;;;;;;5031575;28;20243;-79
2022/08/03 07:09:20;;;;;;;1.77;0.70;;;20.90;99.90;;;;;;5032111;28;20202;-77
2022/08/03 07:11:50;;;;;;;1.70;0.50;;;20.90;99.90;;;;;;5032232;28;20301;-77
2022/08/03 07:14:21;;;;;;;0.80;0.50;;;20.80;99.90;;;;;;5031679;28;20202;-79
2022/08/03 07:16:52;;;;;;;1.13;0.70;;;20.90;99.90;;;;;;5029215;28;20195;-78
2022/08/03 07:19:22;;;;;;;1.30;0.68;;;20.90;99.90;;;;;;5032547;28;20530;-76
2022/08/03 07:21:55;;;;;;;1.67;0.63;;;20.80;99.90;;;;;;5032915;28;20190;-77
2022/08/03 07:24:26;;;;;;;1.83;0.65;;;20.70;99.90;;;;;;5031858;28;20195;-78
2022/08/03 07:26:56;;;;;;;1.92;0.68;;;20.70;99.90;;;;;;5030834;28;20194;-79
2022/08/03 07:29:27;;;;;;;2.17;0.60;;;20.60;99.90;;;;;;5032168;28;20202;-79
2022/08/03 07:31:58;;;;;;;1.50;0.60;;;20.50;99.90;;;;;;5032127;28;20214;-78
2022/08/03 07:34:28;;;;;;;2.17;0.57;;;20.40;99.90;;;;;;5030463;28;20201;-79
2022/08/03 07:37:01;;;;;;;1.30;0.50;;;20.30;99.90;;;;;;5028936;28;20225;-79
2022/08/03 07:39:32;;;;;;;1.60;0.80;;;20.20;99.90;;;;;;5027989;28;20728;-77
2022/08/03 07:42:02;;;;;;;1.98;0.65;;;20.20;99.90;;;;;;5030092;28;20194;-78
2022/08/03 07:44:33;;;;;;;2.03;0.70;;;20.10;99.90;;;;;;5030882;28;20191;-78
2022/08/03 07:47:04;;;;;;;1.45;0.70;;;20.00;99.90;;;;;;5028798;28;20202;-79
2022/08/03 07:49:34;;;;;;;1.95;0.70;;;20.00;99.90;;;;;;5028501;28;20194;-77
2022/08/03 07:54:53;;;;;;;2.00;0.80;;;19.90;99.90;;;;;;5031118;28;20201;-78
2022/08/03 07:57:24;;;;;;;1.20;0.80;;;19.80;99.90;;;;;;5029625;28;20198;-78
2022/08/03 07:59:55;;;;;;;1.52;0.90;;;19.80;99.90;;;;;;5029903;28;20194;-77
2022/08/03 08:02:26;;;;;;;1.63;0.70;;;19.80;99.90;;;;;;5031452;28;20530;-78
2022/08/03 08:04:57;;;;;;;1.77;1.10;;;19.70;99.90;;;;;;5029494;28;20208;-76
2022/08/03 08:07:31;;;;;;;0.93;0.65;;;19.70;99.90;;;;;;5025238;28;21520;-76
2022/08/03 08:10:01;;;;;;;2.33;0.90;;;19.70;99.90;;;;;;5028889;28;20731;-78
2022/08/03 08:12:32;;;;;;;2.20;0.73;;;19.70;99.90;;;;;;5027693;28;20581;-78
2022/08/03 08:15:03;;;;;;;2.38;0.90;;;19.60;99.90;;;;;;5030781;28;20198;-77
2022/08/03 08:17:42;;;;;;;1.00;0.70;;;19.70;99.90;;;;;;5029245;28;20285;-77
2022/08/03 08:20:16;;;;;;;2.25;0.80;;;19.60;99.90;;;;;;5029809;28;20198;-78
2022/08/03 08:22:49;;;;;;;1.10;0.70;;;19.50;99.90;;;;;;5030202;28;20209;-76
2022/08/03 08:25:20;;;;;;;0.77;0.50;;;19.50;99.90;;;;;;5032711;28;20557;-78
2022/08/03 08:27:51;;;;;;;1.63;0.63;;;19.40;99.90;;;;;;5033313;28;20201;-78
2022/08/03 08:30:23;;;;;;;1.58;0.70;;;19.40;99.90;;;;;;5034114;28;20198;-76
2022/08/03 08:32:54;;;;;;;1.40;0.77;;;19.40;99.90;;;;;;5034582;28;20225;-78
2022/08/03 08:35:25;;;;;;;0.75;0.60;;;19.30;99.90;;;;;;5030522;28;20222;-78
2022/08/03 08:37:57;;;;;;;1.95;0.70;;;19.20;99.90;;;;;;5034245;28;20217;-77
2022/08/03 08:40:29;;;;;;;2.25;0.80;;;19.30;99.90;;;;;;5029849;28;20202;-76
2022/08/03 08:43:00;;;;;;;1.55;0.82;;;19.30;99.90;;;;;;5028020;28;20659;-79
2022/08/03 08:45:30;;;;;;;1.05;0.70;;;19.30;99.90;;;;;;5031727;28;20213;-78
2022/08/03 08:48:04;;;;;;;2.22;0.95;;;19.20;99.90;;;;;;5034067;28;20191;-77
2022/08/03 08:50:35;;;;;;;1.70;0.90;;;19.20;99.90;;;;;;5032950;28;20241;-78
2022/08/03 08:53:12;;;;;;;0.95;0.80;;;19.30;99.90;;;;;;5032324;28;20206;-79
2022/08/03 08:55:43;;;;;;;1.35;0.90;;;19.30;99.90;;;;;;5032453;28;20614;-77
2022/08/03 08:58:15;;;;;;;1.75;0.80;;;19.30;99.90;;;;;;5032414;28;20201;-78
2022/08/03 09:00:48;;;;;;;1.05;0.90;;;19.30;99.90;;;;;;5032619;28;20208;-78
2022/08/03 09:03:19;;;;;;;1.00;0.80;;;19.20;99.90;;;;;;5034213;28;20563;-77
2022/08/03 09:05:50;;;;;;;1.95;0.88;;;19.20;99.90;;;;;;5032687;28;20264;-75
2022/08/03 09:08:24;;;;;;;1.45;0.80;;;19.20;99.90;;;;;;5029747;28;20197;-75
2022/08/03 09:10:54;;;;;;;2.65;1.00;;;19.20;99.90;;;;;;5032222;28;20206;-75
2022/08/03 09:13:25;;;;;;;2.50;0.95;;;19.20;99.90;;;;;;5033402;28;20202;-75
2022/08/03 09:16:14;;;;;;;1.88;1.00;;;19.20;99.90;;;;;;5033554;28;20206;-75
2022/08/03 09:18:46;;;;;;;2.25;0.90;;;19.20;99.90;;;;;;5034227;28;20191;-75
2022/08/03 09:21:22;;;;;;;1.90;0.80;;;19.20;99.90;;;;;;5023663;28;20194;-74
2022/08/03 09:23:56;;;;;;;2.05;0.70;;;19.10;99.90;;;;;;5033087;28;20210;-74
2022/08/03 09:26:28;;;;;;;1.48;0.77;;;19.10;99.90;;;;;;5031048;28;20202;-76
2022/08/03 09:29:00;;;;;;;2.28;1.00;;;19.10;99.90;;;;;;5033582;28;20665;-75
2022/08/03 09:31:35;;;;;;;1.10;0.80;;;19.10;99.90;;;;;;5030960;28;20214;-75
2022/08/03 09:34:07;;;;;;;1.98;1.08;;;19.10;99.90;;;;;;5031668;28;20209;-75
2022/08/03 09:36:39;;;;;;;1.40;0.93;;;19.00;99.90;;;;;;5031325;28;20233;-75
2022/08/03 09:39:13;;;;;;;0.85;0.75;;;19.10;99.90;;;;;;5033614;28;20222;-75
2022/08/03 09:41:45;;;;;;;1.30;0.90;;;19.10;99.90;;;;;;5017114;28;20202;-77
2022/08/03 09:44:16;;;;;;;1.20;0.93;;;19.00;99.90;;;;;;5028871;28;20205;-75
2022/08/03 09:46:53;;;;;;;1.48;0.80;;;19.10;99.90;;;;;;5031864;28;20537;-76
2022/08/03 09:49:24;;;;;;;2.10;0.75;;;19.10;99.90;;;;;;5030565;28;20661;-75
2022/08/03 09:51:55;;;;;;;1.70;0.90;;;19.10;99.90;;;;;;5031948;28;20304;-75
2022/08/03 09:54:34;;;;;;;3.13;0.90;;;19.10;99.90;;;;;;5031580;28;20563;-76
2022/08/03 09:57:05;;;;;;;2.15;0.90;;;19.10;99.90;;;;;;5021790;28;20202;-76
2022/08/03 09:59:36;;;;;;;1.38;1.00;;;19.10;99.90;;;;;;5032047;28;20210;-75
2022/08/03 10:02:07;;;;;;;1.00;0.90;;;19.10;99.90;;;;;;5033746;28;20190;-75
2022/08/03 10:04:49;;;;;;;1.10;1.00;;;19.10;99.90;;;;;;5032118;28;20635;-75
2022/08/03 10:07:20;;;;;;;1.65;0.90;;;19.10;99.90;;;;;;5030294;28;20194;-75
2022/08/03 10:10:00;;;;;;;1.33;1.02;;;19.10;99.90;;;;;;5033148;28;20554;-75
2022/08/03 10:12:31;;;;;;;0.98;0.80;;;19.10;99.90;;;;;;5023443;28;20221;-75
2022/08/03 10:15:02;;;;;;;2.08;1.10;;;19.10;99.90;;;;;;5032623;28;20206;-75
2022/08/03 10:17:33;;;;;;;1.13;0.80;;;19.00;99.90;;;;;;5032274;28;20189;-76
2022/08/03 10:20:03;;;;;;;1.40;0.90;;;19.10;99.90;;;;;;5031919;28;20564;-76
2022/08/03 10:22:36;;;;;;;2.55;1.05;;;19.00;99.90;;;;;;5032578;28;20193;-76
2022/08/03 10:25:11;;;;;;;1.60;0.98;;;19.00;99.90;;;;;;5030896;28;20214;-75
2022/08/03 10:27:42;;;;;;;4.40;1.10;;;19.00;99.90;;;;;;5034320;28;20606;-77
2022/08/03 10:30:14;;;;;;;1.95;1.05;;;18.90;99.90;;;;;;5030994;28;20661;-74
2022/08/03 10:32:47;;;;;;;3.42;0.95;;;18.90;99.90;;;;;;5028280;28;20218;-79
2022/08/03 10:35:19;;;;;;;1.83;0.90;;;18.90;99.90;;;;;;5032213;28;20271;-75
2022/08/03 10:37:57;;;;;;;2.60;0.90;;;18.80;99.90;;;;;;5026746;28;20238;-74
2022/08/03 10:40:31;;;;;;;2.78;1.08;;;18.80;99.90;;;;;;5029586;28;20229;-75
2022/08/03 10:43:06;;;;;;;1.88;0.90;;;18.70;99.90;;;;;;5028367;28;20573;-75
2022/08/03 10:45:41;;;;;;;1.17;0.90;;;18.80;99.90;;;;;;5017951;28;20654;-74
2022/08/03 10:48:12;;;;;;;1.60;0.90;;;18.70;99.90;;;;;;5029615;28;20205;-76
2022/08/03 10:50:44;;;;;;;2.88;1.00;;;18.70;99.90;;;;;;5028381;28;20630;-75
2022/08/03 10:53:14;;;;;;;2.67;0.90;;;18.70;99.90;;;;;;5032939;28;20261;-75
2022/08/03 10:58:53;;;;;;;2.55;0.85;;;18.60;99.90;;;;;;4990222;28;20211;-74
2022/08/03 11:01:53;;;;;;;2.83;1.00;;;18.60;99.90;;;;;;4989945;28;20663;-75
2022/08/03 11:04:25;;;;;;;1.80;0.98;;;18.60;99.90;;;;;;5019705;28;20260;-75
2022/08/03 11:07:22;;;;;;;2.63;1.10;;;18.50;99.90;;;;;;5031732;28;20678;-76
2022/08/03 11:09:54;;;;;;;2.13;1.00;;;18.50;99.90;;;;;;5026318;28;20218;-76
2022/08/03 11:12:27;;;;;;;1.85;0.88;;;18.50;99.90;;;;;;5030276;28;20226;-74
2022/08/03 11:15:00;;;;;;;1.75;0.90;;;18.50;99.90;;;;;;5030684;28;20190;-74
2022/08/03 11:17:31;;;;;;;2.45;1.15;;;18.50;99.90;;;;;;5031012;28;20190;-75
2022/08/03 11:20:03;;;;;;;2.25;1.00;;;18.50;99.90;;;;;;5031700;28;20198;-74
2022/08/03 11:22:53;;;;;;;1.67;0.90;;;18.50;99.90;;;;;;5029621;28;20202;-74
2022/08/03 11:25:23;;;;;;;1.35;0.85;;;18.40;99.90;;;;;;5028457;28;20541;-74
2022/08/03 11:28:28;;;;;;;2.92;1.17;;;18.40;99.90;;;;;;5028740;28;20213;-76
2022/08/03 11:31:19;;;;;;;1.70;0.93;;;18.40;99.90;;;;;;5029877;28;20237;-75
2022/08/03 11:34:06;;;;;;;1.30;1.20;;;18.40;99.90;;;;;;5031444;28;20241;-74
2022/08/03 11:37:08;;;;;;;3.30;1.00;;;18.30;99.90;;;;;;5029382;28;20222;-75
2022/08/03 11:39:43;;;;;;;1.00;0.90;;;18.30;99.90;;;;;;5029558;28;20225;-76
2022/08/03 11:42:50;;;;;;;2.78;1.10;;;18.20;99.90;;;;;;5030026;28;20662;-77
2022/08/03 11:45:23;;;;;;;2.38;0.98;;;18.20;99.90;;;;;;5017065;28;20198;-75
2022/08/03 11:47:57;;;;;;;1.42;0.88;;;18.20;99.90;;;;;;5031319;28;20198;-75
2022/08/03 11:50:28;;;;;;;2.17;1.00;;;18.10;99.90;;;;;;5031371;28;20222;-73
2022/08/03 11:52:58;;;;;;;1.27;1.08;;;18.20;99.90;;;;;;5030087;28;20556;-73
2022/08/03 11:55:32;;;;;;;1.42;1.02;;;18.20;99.90;;;;;;5029961;28;20202;-75
2022/08/03 11:58:02;;;;;;;1.75;1.10;;;18.10;99.90;;;;;;5031156;28;20202;-73
2022/08/03 12:00:36;;;;;;;2.38;1.00;;;18.10;99.90;;;;;;5036202;28;20187;-75
2022/08/03 12:03:09;;;;;;;1.48;1.10;;;18.10;99.90;;;;;;5035892;28;20197;-74
2022/08/03 12:05:45;;;;;;;1.23;1.00;;;18.10;99.90;;;;;;5030813;28;20233;-74
2022/08/03 12:08:17;;;;;;;2.45;1.00;;;18.10;99.90;;;;;;5034067;28;20202;-74
2022/08/03 12:10:52;;;;;;;1.15;0.98;;;18.20;99.90;;;;;;5036037;28;20190;-73
2022/08/03 12:13:24;;;;;;;1.00;1.00;;;18.10;99.90;;;;;;5033961;28;20618;-74
2022/08/03 12:15:58;;;;;;;1.85;1.10;;;18.00;99.90;;;;;;5032339;28;20220;-75
2022/08/03 12:18:29;;;;;;;1.55;1.13;;;18.00;99.90;;;;;;5016076;28;20219;-74
2022/08/03 12:21:08;;;;;;;3.38;0.90;;;18.00;99.90;;;;;;5032819;28;20210;-74
2022/08/03 12:23:39;;;;;;;2.85;1.08;;;17.90;99.90;;;;;;5034361;28;20213;-73
2022/08/03 12:26:11;;;;;;;1.88;0.90;;;17.90;99.90;;;;;;5033547;28;20213;-74
2022/08/03 12:28:51;;;;;;;1.60;0.90;;;17.80;99.90;;;;;;5034712;28;20229;-75
2022/08/03 12:31:23;;;;;;;1.48;1.00;;;17.80;99.90;;;;;;5034308;28;20202;-73
2022/08/03 12:34:02;;;;;;;2.38;1.20;;;17.80;99.90;;;;;;5033703;28;20214;-73
2022/08/03 12:36:34;;;;;;;2.20;1.00;;;17.70;99.90;;;;;;5033276;28;20254;-74
2022/08/03 12:39:07;;;;;;;1.80;1.00;;;17.70;99.90;;;;;;5034634;28;20242;-74
2022/08/03 12:41:39;;;;;;;3.20;1.20;;;17.70;99.90;;;;;;5033612;28;20203;-74
2022/08/03 12:44:11;;;;;;;3.42;1.10;;;17.60;99.90;;;;;;5019740;28;20260;-75
2022/08/03 12:46:44;;;;;;;3.00;1.35;;;17.60;99.90;;;;;;5033014;28;20221;-74
2022/08/03 12:49:16;;;;;;;1.77;1.10;;;17.50;99.90;;;;;;5034673;28;20198;-74
2022/08/03 12:52:01;;;;;;;1.30;1.08;;;17.50;99.90;;;;;;5033308;28;20213;-74
2022/08/03 12:54:34;;;;;;;1.65;1.20;;;17.40;99.90;;;;;;5034295;28;20665;-74
2022/08/03 12:57:06;;;;;;;2.08;1.23;;;17.40;99.90;;;;;;5031581;28;20210;-74
2022/08/03 12:59:41;;;;;;;2.17;1.20;;;17.40;99.90;;;;;;5032050;28;20677;-74
2022/08/03 13:02:20;;;;;;;2.60;1.27;;;17.40;99.90;;;;;;5033180;28;20215;-74
2022/08/03 13:04:52;;;;;;;2.97;1.00;;;17.40;99.90;;;;;;5034650;28;20190;-75
2022/08/03 13:07:23;;;;;;;1.73;1.00;;;17.30;99.90;;;;;;5033935;28;20555;-74
2022/08/03 13:09:57;;;;;;;1.58;1.13;;;17.30;99.90;;;;;;5034760;28;20201;-74
2022/08/03 13:12:29;;;;;;;1.33;1.10;;;17.20;99.90;;;;;;5033458;28;20297;-75
2022/08/03 13:15:01;;;;;;;3.55;1.23;;;17.20;99.90;;;;;;5034112;28;20202;-78
2022/08/03 13:17:34;;;;;;;3.00;1.30;;;17.20;99.90;;;;;;5032610;28;20625;-78
2022/08/03 13:20:05;;;;;;;4.50;1.33;;;17.20;99.90;;;;;;5032428;28;20202;-76
2022/08/03 13:22:36;;;;;;;3.17;1.10;;;17.20;99.90;;;;;;5033782;28;20209;-77
2022/08/03 13:25:07;;;;;;;3.17;1.38;;;17.20;99.90;;;;;;5033585;28;20194;-75
2022/08/03 13:27:37;;;;;;;3.95;1.25;;;17.20;99.90;;;;;;5034529;28;20191;-77
2022/08/03 13:30:09;;;;;;;3.33;1.20;;;17.20;99.90;;;;;;5031718;28;20252;-77
2022/08/03 13:32:42;;;;;;;1.92;1.20;;;17.10;99.90;;;;;;5033786;28;20221;-78